sensor_id;sensor_type;location;lat;lon;timestamp;P1;durP1;ratioP1;P2;durP2;ratioP2
55483;SDS011;41345;51.704;5.146;2023-04-29T00:01:52;100.67;;;93.43;;
55483;SDS011;41345;51.704;5.146;2023-04-29T00:06:57;106.40;;;98.80;;
55483;SDS011;41345;51.704;5.146;2023-04-29T00:11:58;111.15;;;103.03;;
55483;SDS011;41345;51.704;5.146;2023-04-29T00:16:58;109.80;;;101.83;;
55483;SDS011;41345;51.704;5.146;2023-04-29T00:21:59;111.32;;;102.95;;
55483;SDS011;41345;51.704;5.146;2023-04-29T00:27:00;112.45;;;104.07;;
55483;SDS011;41345;51.704;5.146;2023-04-29T00:32:01;110.50;;;102.03;;
55483;SDS011;41345;51.704;5.146;2023-04-29T00:37:02;114.03;;;105.22;;
55483;SDS011;41345;51.704;5.146;2023-04-29T00:42:03;114.53;;;105.65;;
55483;SDS011;41345;51.704;5.146;2023-04-29T00:47:03;119.28;;;108.95;;
55483;SDS011;41345;51.704;5.146;2023-04-29T00:52:04;120.90;;;110.43;;
55483;SDS011;41345;51.704;5.146;2023-04-29T00:57:07;126.57;;;115.47;;
55483;SDS011;41345;51.704;5.146;2023-04-29T01:02:07;115.47;;;105.50;;
55483;SDS011;41345;51.704;5.146;2023-04-29T01:17:40;118.60;;;108.05;;
55483;SDS011;41345;51.704;5.146;2023-04-29T01:22:42;123.88;;;112.22;;
55483;SDS011;41345;51.704;5.146;2023-04-29T01:33:22;120.50;;;109.70;;
55483;SDS011;41345;51.704;5.146;2023-04-29T01:38:28;117.05;;;105.72;;
55483;SDS011;41345;51.704;5.146;2023-04-29T01:43:31;113.32;;;103.60;;
55483;SDS011;41345;51.704;5.146;2023-04-29T01:48:32;121.70;;;110.10;;
55483;SDS011;41345;51.704;5.146;2023-04-29T01:53:33;117.18;;;106.43;;
55483;SDS011;41345;51.704;5.146;2023-04-29T01:58:33;125.33;;;113.80;;
55483;SDS011;41345;51.704;5.146;2023-04-29T02:03:33;123.55;;;111.85;;
55483;SDS011;41345;51.704;5.146;2023-04-29T02:08:35;125.80;;;113.63;;
55483;SDS011;41345;51.704;5.146;2023-04-29T02:13:35;116.93;;;105.63;;
55483;SDS011;41345;51.704;5.146;2023-04-29T02:18:36;110.85;;;100.47;;
55483;SDS011;41345;51.704;5.146;2023-04-29T02:23:36;111.50;;;101.22;;
55483;SDS011;41345;51.704;5.146;2023-04-29T02:28:36;112.45;;;102.43;;
55483;SDS011;41345;51.704;5.146;2023-04-29T02:33:37;116.13;;;105.57;;
55483;SDS011;41345;51.704;5.146;2023-04-29T02:38:37;109.05;;;99.88;;
55483;SDS011;41345;51.704;5.146;2023-04-29T02:43:37;112.50;;;101.88;;
55483;SDS011;41345;51.704;5.146;2023-04-29T02:48:38;110.22;;;100.88;;
55483;SDS011;41345;51.704;5.146;2023-04-29T02:53:38;112.47;;;103.25;;
55483;SDS011;41345;51.704;5.146;2023-04-29T02:58:38;111.20;;;101.90;;
55483;SDS011;41345;51.704;5.146;2023-04-29T03:03:39;119.90;;;109.47;;
55483;SDS011;41345;51.704;5.146;2023-04-29T03:08:39;118.25;;;107.85;;
55483;SDS011;41345;51.704;5.146;2023-04-29T03:13:40;114.90;;;104.80;;
55483;SDS011;41345;51.704;5.146;2023-04-29T03:18:40;108.95;;;99.80;;
55483;SDS011;41345;51.704;5.146;2023-04-29T03:23:40;110.28;;;101.85;;
55483;SDS011;41345;51.704;5.146;2023-04-29T03:28:41;109.63;;;100.57;;
55483;SDS011;41345;51.704;5.146;2023-04-29T03:33:42;106.65;;;98.03;;
55483;SDS011;41345;51.704;5.146;2023-04-29T03:38:42;99.05;;;91.18;;
55483;SDS011;41345;51.704;5.146;2023-04-29T03:43:43;105.72;;;97.60;;
55483;SDS011;41345;51.704;5.146;2023-04-29T03:48:43;106.03;;;97.57;;
55483;SDS011;41345;51.704;5.146;2023-04-29T03:53:43;104.88;;;96.20;;
55483;SDS011;41345;51.704;5.146;2023-04-29T03:58:44;103.93;;;95.40;;
55483;SDS011;41345;51.704;5.146;2023-04-29T04:03:45;99.53;;;91.53;;
55483;SDS011;41345;51.704;5.146;2023-04-29T04:08:45;105.03;;;95.65;;
55483;SDS011;41345;51.704;5.146;2023-04-29T04:13:46;102.90;;;94.47;;
55483;SDS011;41345;51.704;5.146;2023-04-29T04:18:46;102.40;;;94.22;;
55483;SDS011;41345;51.704;5.146;2023-04-29T04:23:46;94.55;;;87.10;;
55483;SDS011;41345;51.704;5.146;2023-04-29T04:28:47;95.60;;;87.90;;
55483;SDS011;41345;51.704;5.146;2023-04-29T04:33:47;98.75;;;90.57;;
55483;SDS011;41345;51.704;5.146;2023-04-29T04:38:47;95.33;;;87.73;;
55483;SDS011;41345;51.704;5.146;2023-04-29T04:43:48;103.47;;;95.65;;
55483;SDS011;41345;51.704;5.146;2023-04-29T04:48:48;98.03;;;90.22;;
55483;SDS011;41345;51.704;5.146;2023-04-29T04:53:48;94.87;;;87.83;;
55483;SDS011;41345;51.704;5.146;2023-04-29T04:58:49;92.60;;;85.28;;
55483;SDS011;41345;51.704;5.146;2023-04-29T05:03:49;95.68;;;88.47;;
55483;SDS011;41345;51.704;5.146;2023-04-29T05:08:49;93.70;;;86.50;;
55483;SDS011;41345;51.704;5.146;2023-04-29T05:13:49;96.53;;;89.07;;
55483;SDS011;41345;51.704;5.146;2023-04-29T05:18:50;99.50;;;91.50;;
55483;SDS011;41345;51.704;5.146;2023-04-29T05:23:52;95.50;;;88.05;;
55483;SDS011;41345;51.704;5.146;2023-04-29T05:28:52;98.43;;;91.18;;
55483;SDS011;41345;51.704;5.146;2023-04-29T05:33:52;93.07;;;85.57;;
55483;SDS011;41345;51.704;5.146;2023-04-29T05:38:53;95.82;;;88.05;;
55483;SDS011;41345;51.704;5.146;2023-04-29T05:43:53;92.18;;;85.05;;
55483;SDS011;41345;51.704;5.146;2023-04-29T05:48:53;87.20;;;80.45;;
55483;SDS011;41345;51.704;5.146;2023-04-29T05:53:54;89.93;;;82.45;;
55483;SDS011;41345;51.704;5.146;2023-04-29T05:58:54;89.77;;;82.67;;
55483;SDS011;41345;51.704;5.146;2023-04-29T06:03:54;90.18;;;83.22;;
55483;SDS011;41345;51.704;5.146;2023-04-29T06:08:55;93.50;;;85.90;;
55483;SDS011;41345;51.704;5.146;2023-04-29T06:13:55;91.83;;;84.43;;
55483;SDS011;41345;51.704;5.146;2023-04-29T06:18:56;94.20;;;87.30;;
55483;SDS011;41345;51.704;5.146;2023-04-29T06:23:57;90.28;;;82.78;;
55483;SDS011;41345;51.704;5.146;2023-04-29T06:28:57;89.27;;;82.60;;
55483;SDS011;41345;51.704;5.146;2023-04-29T06:33:58;89.10;;;82.32;;
55483;SDS011;41345;51.704;5.146;2023-04-29T06:38:58;88.67;;;81.57;;
55483;SDS011;41345;51.704;5.146;2023-04-29T06:43:58;87.22;;;80.07;;
55483;SDS011;41345;51.704;5.146;2023-04-29T06:48:59;88.25;;;81.07;;
55483;SDS011;41345;51.704;5.146;2023-04-29T06:53:59;95.57;;;87.88;;
55483;SDS011;41345;51.704;5.146;2023-04-29T06:59:00;94.45;;;87.15;;
55483;SDS011;41345;51.704;5.146;2023-04-29T07:04:00;94.80;;;87.70;;
55483;SDS011;41345;51.704;5.146;2023-04-29T07:09:01;81.53;;;74.97;;
55483;SDS011;41345;51.704;5.146;2023-04-29T07:14:01;89.43;;;82.47;;
55483;SDS011;41345;51.704;5.146;2023-04-29T07:19:01;94.55;;;87.15;;
55483;SDS011;41345;51.704;5.146;2023-04-29T07:24:02;85.95;;;78.45;;
55483;SDS011;41345;51.704;5.146;2023-04-29T07:29:03;86.20;;;79.35;;
55483;SDS011;41345;51.704;5.146;2023-04-29T07:34:04;84.32;;;77.82;;
55483;SDS011;41345;51.704;5.146;2023-04-29T07:39:05;78.47;;;72.47;;
55483;SDS011;41345;51.704;5.146;2023-04-29T07:44:05;73.47;;;67.68;;
55483;SDS011;41345;51.704;5.146;2023-04-29T07:49:05;72.50;;;66.80;;
55483;SDS011;41345;51.704;5.146;2023-04-29T07:54:06;73.85;;;68.07;;
55483;SDS011;41345;51.704;5.146;2023-04-29T07:59:06;71.25;;;65.75;;
55483;SDS011;41345;51.704;5.146;2023-04-29T08:04:06;71.45;;;66.07;;
55483;SDS011;41345;51.704;5.146;2023-04-29T08:09:07;68.28;;;62.92;;
55483;SDS011;41345;51.704;5.146;2023-04-29T08:14:07;60.60;;;55.55;;
55483;SDS011;41345;51.704;5.146;2023-04-29T08:19:07;42.08;;;38.35;;
55483;SDS011;41345;51.704;5.146;2023-04-29T08:24:08;36.42;;;32.95;;
55483;SDS011;41345;51.704;5.146;2023-04-29T08:29:08;57.13;;;52.10;;
55483;SDS011;41345;51.704;5.146;2023-04-29T08:34:09;57.00;;;52.13;;
55483;SDS011;41345;51.704;5.146;2023-04-29T08:39:09;57.50;;;52.70;;
55483;SDS011;41345;51.704;5.146;2023-04-29T08:44:09;57.72;;;53.08;;
55483;SDS011;41345;51.704;5.146;2023-04-29T08:49:10;44.03;;;40.13;;
55483;SDS011;41345;51.704;5.146;2023-04-29T08:54:10;45.13;;;41.42;;
55483;SDS011;41345;51.704;5.146;2023-04-29T08:59:10;23.67;;;18.15;;
55483;SDS011;41345;51.704;5.146;2023-04-29T09:04:14;26.55;;;21.52;;
55483;SDS011;41345;51.704;5.146;2023-04-29T09:09:20;25.08;;;18.25;;
55483;SDS011;41345;51.704;5.146;2023-04-29T09:14:21;22.20;;;15.90;;
55483;SDS011;41345;51.704;5.146;2023-04-29T09:19:28;19.67;;;14.38;;
55483;SDS011;41345;51.704;5.146;2023-04-29T09:24:30;24.70;;;18.67;;
55483;SDS011;41345;51.704;5.146;2023-04-29T09:29:30;23.98;;;18.30;;
55483;SDS011;41345;51.704;5.146;2023-04-29T09:34:32;21.33;;;12.95;;
55483;SDS011;41345;51.704;5.146;2023-04-29T09:39:38;18.90;;;12.57;;
55483;SDS011;41345;51.704;5.146;2023-04-29T09:44:40;20.17;;;15.60;;
55483;SDS011;41345;51.704;5.146;2023-04-29T09:49:41;19.17;;;12.13;;
55483;SDS011;41345;51.704;5.146;2023-04-29T09:54:42;18.55;;;14.00;;
55483;SDS011;41345;51.704;5.146;2023-04-29T09:59:42;22.52;;;18.08;;
55483;SDS011;41345;51.704;5.146;2023-04-29T10:04:46;17.70;;;13.30;;
55483;SDS011;41345;51.704;5.146;2023-04-29T10:09:47;16.70;;;11.73;;
55483;SDS011;41345;51.704;5.146;2023-04-29T10:15:01;18.58;;;14.63;;
55483;SDS011;41345;51.704;5.146;2023-04-29T10:20:03;13.85;;;9.55;;
55483;SDS011;41345;51.704;5.146;2023-04-29T10:25:07;17.85;;;9.85;;
55483;SDS011;41345;51.704;5.146;2023-04-29T10:30:13;13.98;;;9.43;;
55483;SDS011;41345;51.704;5.146;2023-04-29T10:35:14;14.45;;;11.25;;
55483;SDS011;41345;51.704;5.146;2023-04-29T10:40:22;12.48;;;6.57;;
55483;SDS011;41345;51.704;5.146;2023-04-29T10:45:27;12.80;;;8.18;;
55483;SDS011;41345;51.704;5.146;2023-04-29T10:50:28;17.17;;;9.48;;
55483;SDS011;41345;51.704;5.146;2023-04-29T10:55:29;14.68;;;9.05;;
55483;SDS011;41345;51.704;5.146;2023-04-29T11:00:33;15.95;;;9.77;;
55483;SDS011;41345;51.704;5.146;2023-04-29T11:05:34;14.57;;;7.95;;
55483;SDS011;41345;51.704;5.146;2023-04-29T11:10:35;13.57;;;7.30;;
55483;SDS011;41345;51.704;5.146;2023-04-29T11:15:35;12.43;;;7.57;;
55483;SDS011;41345;51.704;5.146;2023-04-29T11:25:55;12.77;;;7.38;;
55483;SDS011;41345;51.704;5.146;2023-04-29T11:30:56;10.73;;;6.57;;
55483;SDS011;41345;51.704;5.146;2023-04-29T11:35:56;11.40;;;5.97;;
55483;SDS011;41345;51.704;5.146;2023-04-29T11:40:57;13.68;;;8.30;;
55483;SDS011;41345;51.704;5.146;2023-04-29T11:45:58;12.70;;;7.65;;
55483;SDS011;41345;51.704;5.146;2023-04-29T11:50:58;12.63;;;6.82;;
55483;SDS011;41345;51.704;5.146;2023-04-29T11:55:59;11.68;;;6.57;;
55483;SDS011;41345;51.704;5.146;2023-04-29T12:00:59;10.85;;;6.45;;
55483;SDS011;41345;51.704;5.146;2023-04-29T12:06:00;10.60;;;6.30;;
55483;SDS011;41345;51.704;5.146;2023-04-29T12:11:01;10.30;;;6.13;;
55483;SDS011;41345;51.704;5.146;2023-04-29T12:16:01;12.33;;;6.67;;
55483;SDS011;41345;51.704;5.146;2023-04-29T12:21:02;15.60;;;9.15;;
55483;SDS011;41345;51.704;5.146;2023-04-29T12:26:02;11.63;;;5.43;;
55483;SDS011;41345;51.704;5.146;2023-04-29T12:31:03;10.25;;;4.97;;
55483;SDS011;41345;51.704;5.146;2023-04-29T12:36:03;8.73;;;5.03;;
55483;SDS011;41345;51.704;5.146;2023-04-29T12:41:04;11.18;;;5.80;;
55483;SDS011;41345;51.704;5.146;2023-04-29T12:46:07;12.68;;;6.10;;
55483;SDS011;41345;51.704;5.146;2023-04-29T12:51:10;12.48;;;5.80;;
55483;SDS011;41345;51.704;5.146;2023-04-29T12:56:11;11.63;;;6.20;;
55483;SDS011;41345;51.704;5.146;2023-04-29T13:01:12;8.88;;;4.40;;
55483;SDS011;41345;51.704;5.146;2023-04-29T13:06:12;9.43;;;4.65;;
55483;SDS011;41345;51.704;5.146;2023-04-29T13:11:13;9.23;;;4.70;;
55483;SDS011;41345;51.704;5.146;2023-04-29T13:16:13;9.98;;;5.30;;
55483;SDS011;41345;51.704;5.146;2023-04-29T13:21:13;9.30;;;5.30;;
55483;SDS011;41345;51.704;5.146;2023-04-29T13:26:14;9.48;;;4.95;;
55483;SDS011;41345;51.704;5.146;2023-04-29T13:31:14;9.05;;;4.75;;
55483;SDS011;41345;51.704;5.146;2023-04-29T13:36:14;7.80;;;4.18;;
55483;SDS011;41345;51.704;5.146;2023-04-29T13:41:15;9.33;;;4.20;;
55483;SDS011;41345;51.704;5.146;2023-04-29T13:46:15;10.70;;;4.43;;
55483;SDS011;41345;51.704;5.146;2023-04-29T13:51:15;10.13;;;4.67;;
55483;SDS011;41345;51.704;5.146;2023-04-29T13:56:16;10.50;;;4.80;;
55483;SDS011;41345;51.704;5.146;2023-04-29T14:01:16;9.85;;;4.93;;
55483;SDS011;41345;51.704;5.146;2023-04-29T14:06:17;6.88;;;4.03;;
55483;SDS011;41345;51.704;5.146;2023-04-29T14:11:17;9.60;;;4.00;;
55483;SDS011;41345;51.704;5.146;2023-04-29T14:16:19;8.23;;;4.43;;
55483;SDS011;41345;51.704;5.146;2023-04-29T14:21:19;8.82;;;4.32;;
55483;SDS011;41345;51.704;5.146;2023-04-29T14:26:21;9.63;;;4.70;;
55483;SDS011;41345;51.704;5.146;2023-04-29T14:31:23;7.72;;;4.03;;
55483;SDS011;41345;51.704;5.146;2023-04-29T14:36:23;8.38;;;4.10;;
55483;SDS011;41345;51.704;5.146;2023-04-29T14:41:24;7.25;;;3.40;;
55483;SDS011;41345;51.704;5.146;2023-04-29T14:46:24;7.18;;;3.85;;
55483;SDS011;41345;51.704;5.146;2023-04-29T14:51:24;9.60;;;3.95;;
55483;SDS011;41345;51.704;5.146;2023-04-29T14:56:26;7.28;;;3.20;;
55483;SDS011;41345;51.704;5.146;2023-04-29T15:01:26;6.22;;;3.15;;
55483;SDS011;41345;51.704;5.146;2023-04-29T15:06:27;8.73;;;4.43;;
55483;SDS011;41345;51.704;5.146;2023-04-29T15:11:27;7.15;;;4.47;;
55483;SDS011;41345;51.704;5.146;2023-04-29T15:16:28;10.57;;;5.75;;
55483;SDS011;41345;51.704;5.146;2023-04-29T15:21:28;8.93;;;5.80;;
55483;SDS011;41345;51.704;5.146;2023-04-29T15:26:29;11.35;;;5.95;;
55483;SDS011;41345;51.704;5.146;2023-04-29T15:31:29;9.40;;;5.80;;
55483;SDS011;41345;51.704;5.146;2023-04-29T15:36:30;10.77;;;5.63;;
55483;SDS011;41345;51.704;5.146;2023-04-29T15:41:31;10.70;;;4.63;;
55483;SDS011;41345;51.704;5.146;2023-04-29T15:46:32;10.80;;;5.88;;
55483;SDS011;41345;51.704;5.146;2023-04-29T15:51:32;11.73;;;6.00;;
55483;SDS011;41345;51.704;5.146;2023-04-29T15:56:32;9.63;;;5.60;;
55483;SDS011;41345;51.704;5.146;2023-04-29T16:01:33;8.48;;;4.63;;
55483;SDS011;41345;51.704;5.146;2023-04-29T16:06:33;10.88;;;5.32;;
55483;SDS011;41345;51.704;5.146;2023-04-29T16:11:33;9.40;;;5.23;;
55483;SDS011;41345;51.704;5.146;2023-04-29T16:16:33;9.80;;;4.82;;
55483;SDS011;41345;51.704;5.146;2023-04-29T16:21:34;7.70;;;3.80;;
55483;SDS011;41345;51.704;5.146;2023-04-29T16:26:34;10.20;;;3.87;;
55483;SDS011;41345;51.704;5.146;2023-04-29T16:31:35;8.85;;;3.33;;
55483;SDS011;41345;51.704;5.146;2023-04-29T16:36:36;4.93;;;2.85;;
55483;SDS011;41345;51.704;5.146;2023-04-29T16:41:36;5.87;;;2.60;;
55483;SDS011;41345;51.704;5.146;2023-04-29T16:46:36;5.60;;;2.70;;
55483;SDS011;41345;51.704;5.146;2023-04-29T16:51:37;6.20;;;3.47;;
55483;SDS011;41345;51.704;5.146;2023-04-29T16:56:37;7.13;;;3.13;;
55483;SDS011;41345;51.704;5.146;2023-04-29T17:01:38;9.88;;;2.63;;
55483;SDS011;41345;51.704;5.146;2023-04-29T17:06:38;5.78;;;2.85;;
55483;SDS011;41345;51.704;5.146;2023-04-29T17:11:39;24.65;;;4.35;;
55483;SDS011;41345;51.704;5.146;2023-04-29T17:16:40;6.05;;;2.55;;
55483;SDS011;41345;51.704;5.146;2023-04-29T17:21:40;5.25;;;2.38;;
55483;SDS011;41345;51.704;5.146;2023-04-29T17:26:41;5.60;;;2.63;;
55483;SDS011;41345;51.704;5.146;2023-04-29T17:31:41;6.95;;;2.15;;
55483;SDS011;41345;51.704;5.146;2023-04-29T17:36:46;4.63;;;2.20;;
55483;SDS011;41345;51.704;5.146;2023-04-29T17:41:46;4.23;;;1.80;;
55483;SDS011;41345;51.704;5.146;2023-04-29T17:46:46;5.57;;;2.50;;
55483;SDS011;41345;51.704;5.146;2023-04-29T17:51:47;5.43;;;2.00;;
55483;SDS011;41345;51.704;5.146;2023-04-29T17:56:47;5.20;;;2.35;;
55483;SDS011;41345;51.704;5.146;2023-04-29T18:01:48;6.60;;;1.93;;
55483;SDS011;41345;51.704;5.146;2023-04-29T18:06:48;16.35;;;2.40;;
55483;SDS011;41345;51.704;5.146;2023-04-29T18:11:48;3.90;;;2.00;;
55483;SDS011;41345;51.704;5.146;2023-04-29T18:16:48;3.22;;;1.88;;
55483;SDS011;41345;51.704;5.146;2023-04-29T18:21:50;6.32;;;2.13;;
55483;SDS011;41345;51.704;5.146;2023-04-29T18:26:50;5.30;;;1.90;;
55483;SDS011;41345;51.704;5.146;2023-04-29T18:31:51;4.45;;;2.10;;
55483;SDS011;41345;51.704;5.146;2023-04-29T18:36:53;6.30;;;2.78;;
55483;SDS011;41345;51.704;5.146;2023-04-29T18:41:53;8.93;;;2.97;;
55483;SDS011;41345;51.704;5.146;2023-04-29T18:46:54;9.00;;;3.50;;
55483;SDS011;41345;51.704;5.146;2023-04-29T18:51:54;10.38;;;4.03;;
55483;SDS011;41345;51.704;5.146;2023-04-29T18:56:55;9.95;;;3.40;;
55483;SDS011;41345;51.704;5.146;2023-04-29T19:01:55;5.03;;;3.17;;
55483;SDS011;41345;51.704;5.146;2023-04-29T19:06:56;6.53;;;3.10;;
55483;SDS011;41345;51.704;5.146;2023-04-29T19:11:59;6.72;;;3.20;;
55483;SDS011;41345;51.704;5.146;2023-04-29T19:17:02;8.70;;;3.08;;
55483;SDS011;41345;51.704;5.146;2023-04-29T19:22:02;8.82;;;3.22;;
55483;SDS011;41345;51.704;5.146;2023-04-29T19:27:04;8.13;;;3.20;;
55483;SDS011;41345;51.704;5.146;2023-04-29T19:32:05;7.45;;;2.90;;
55483;SDS011;41345;51.704;5.146;2023-04-29T19:37:05;6.35;;;3.05;;
55483;SDS011;41345;51.704;5.146;2023-04-29T19:42:05;7.28;;;3.65;;
55483;SDS011;41345;51.704;5.146;2023-04-29T19:47:06;5.88;;;3.20;;
55483;SDS011;41345;51.704;5.146;2023-04-29T19:52:06;6.45;;;2.80;;
55483;SDS011;41345;51.704;5.146;2023-04-29T19:57:07;5.68;;;3.03;;
55483;SDS011;41345;51.704;5.146;2023-04-29T20:02:07;16.13;;;3.35;;
55483;SDS011;41345;51.704;5.146;2023-04-29T20:07:07;6.53;;;2.90;;
55483;SDS011;41345;51.704;5.146;2023-04-29T20:12:08;7.30;;;3.33;;
55483;SDS011;41345;51.704;5.146;2023-04-29T20:17:09;6.18;;;3.40;;
55483;SDS011;41345;51.704;5.146;2023-04-29T20:22:09;13.07;;;3.70;;
55483;SDS011;41345;51.704;5.146;2023-04-29T20:27:10;7.22;;;3.50;;
55483;SDS011;41345;51.704;5.146;2023-04-29T20:32:10;9.70;;;4.10;;
55483;SDS011;41345;51.704;5.146;2023-04-29T20:37:11;7.25;;;3.80;;
55483;SDS011;41345;51.704;5.146;2023-04-29T20:42:11;9.33;;;4.00;;
55483;SDS011;41345;51.704;5.146;2023-04-29T20:47:11;9.65;;;5.70;;
55483;SDS011;41345;51.704;5.146;2023-04-29T20:52:12;11.07;;;5.80;;
55483;SDS011;41345;51.704;5.146;2023-04-29T20:57:12;10.82;;;6.53;;
55483;SDS011;41345;51.704;5.146;2023-04-29T21:02:12;9.77;;;5.78;;
55483;SDS011;41345;51.704;5.146;2023-04-29T21:07:13;11.30;;;6.03;;
55483;SDS011;41345;51.704;5.146;2023-04-29T21:12:13;9.10;;;5.75;;
55483;SDS011;41345;51.704;5.146;2023-04-29T21:17:14;11.57;;;6.07;;
55483;SDS011;41345;51.704;5.146;2023-04-29T21:22:15;12.73;;;6.40;;
55483;SDS011;41345;51.704;5.146;2023-04-29T21:27:15;10.05;;;6.50;;
55483;SDS011;41345;51.704;5.146;2023-04-29T21:32:16;14.52;;;6.53;;
55483;SDS011;41345;51.704;5.146;2023-04-29T21:37:20;10.23;;;7.60;;
55483;SDS011;41345;51.704;5.146;2023-04-29T21:42:20;13.07;;;9.80;;
55483;SDS011;41345;51.704;5.146;2023-04-29T21:47:24;12.25;;;8.02;;
55483;SDS011;41345;51.704;5.146;2023-04-29T21:52:24;12.75;;;7.95;;
55483;SDS011;41345;51.704;5.146;2023-04-29T21:57:25;15.63;;;8.68;;
55483;SDS011;41345;51.704;5.146;2023-04-29T22:02:25;15.65;;;8.00;;
55483;SDS011;41345;51.704;5.146;2023-04-29T22:07:26;13.45;;;7.70;;
55483;SDS011;41345;51.704;5.146;2023-04-29T22:12:27;14.50;;;11.53;;
55483;SDS011;41345;51.704;5.146;2023-04-29T22:17:27;13.40;;;9.10;;
55483;SDS011;41345;51.704;5.146;2023-04-29T22:22:27;12.38;;;10.60;;
55483;SDS011;41345;51.704;5.146;2023-04-29T22:27:28;19.70;;;17.85;;
55483;SDS011;41345;51.704;5.146;2023-04-29T22:32:28;14.65;;;13.05;;
55483;SDS011;41345;51.704;5.146;2023-04-29T22:37:28;14.77;;;13.15;;
55483;SDS011;41345;51.704;5.146;2023-04-29T22:42:28;15.13;;;11.70;;
55483;SDS011;41345;51.704;5.146;2023-04-29T22:47:29;15.65;;;10.63;;
55483;SDS011;41345;51.704;5.146;2023-04-29T22:52:30;20.73;;;17.67;;
55483;SDS011;41345;51.704;5.146;2023-04-29T22:57:31;16.42;;;12.85;;
55483;SDS011;41345;51.704;5.146;2023-04-29T23:02:31;16.73;;;13.13;;
55483;SDS011;41345;51.704;5.146;2023-04-29T23:07:32;20.42;;;18.33;;
55483;SDS011;41345;51.704;5.146;2023-04-29T23:12:32;17.35;;;13.63;;
55483;SDS011;41345;51.704;5.146;2023-04-29T23:17:33;22.42;;;14.57;;
55483;SDS011;41345;51.704;5.146;2023-04-29T23:22:36;19.80;;;16.65;;
55483;SDS011;41345;51.704;5.146;2023-04-29T23:27:36;21.95;;;16.92;;
55483;SDS011;41345;51.704;5.146;2023-04-29T23:32:37;19.73;;;17.85;;
55483;SDS011;41345;51.704;5.146;2023-04-29T23:37:37;22.33;;;20.02;;
55483;SDS011;41345;51.704;5.146;2023-04-29T23:42:37;25.45;;;23.35;;
55483;SDS011;41345;51.704;5.146;2023-04-29T23:47:38;26.88;;;24.30;;
55483;SDS011;41345;51.704;5.146;2023-04-29T23:52:38;29.80;;;27.30;;
55483;SDS011;41345;51.704;5.146;2023-04-29T23:57:38;27.27;;;24.90;;
